createdAt,value
2023-05-19T00:01:15.369Z,58.89
2023-05-19T00:03:54.019Z,59.74
2023-05-19T00:06:25.594Z,60.06
2023-05-19T00:08:57.833Z,59.47
2023-05-19T00:11:26.711Z,60.29
2023-05-19T00:13:54.572Z,59.72
2023-05-19T00:16:22.935Z,60.14
2023-05-19T00:18:49.959Z,60.18
2023-05-19T00:21:17.072Z,59.90
2023-05-19T00:23:44.087Z,59.96
2023-05-19T00:26:11.148Z,60.30
2023-05-19T00:28:42.361Z,60.53
2023-05-19T00:31:09.329Z,60.86
2023-05-19T00:33:36.112Z,60.86
2023-05-19T00:36:04.197Z,61.45
2023-05-19T00:38:31.968Z,60.96
2023-05-19T00:40:59.370Z,61.46
2023-05-19T00:43:26.567Z,61.12
2023-05-19T00:45:53.485Z,61.17
2023-05-19T00:48:21.111Z,62.00
2023-05-19T00:50:48.295Z,61.93
2023-05-19T00:53:15.716Z,62.15
2023-05-19T00:55:43.045Z,62.60
2023-05-19T00:58:12.611Z,62.70
2023-05-19T01:00:40.029Z,63.17
2023-05-19T01:03:11.700Z,62.81
2023-05-19T01:05:41.892Z,62.56
2023-05-19T01:08:09.384Z,62.13
2023-05-19T01:10:36.889Z,62.52
2023-05-19T01:13:05.534Z,63.54
2023-05-19T01:15:52.562Z,62.94
2023-05-19T01:18:26.313Z,63.50
2023-05-19T01:21:03.941Z,63.64
2023-05-19T01:23:51.978Z,63.46
2023-05-19T01:26:49.733Z,63.71
2023-05-19T01:30:07.592Z,63.84
2023-05-19T01:32:34.993Z,64.00
2023-05-19T01:35:04.306Z,63.47
2023-05-19T01:37:31.613Z,63.78
2023-05-19T01:39:58.540Z,64.35
2023-05-19T01:42:25.431Z,64.84
2023-05-19T01:45:01.520Z,64.71
2023-05-19T01:47:28.503Z,65.12
2023-05-19T01:49:55.322Z,65.14
2023-05-19T01:52:22.108Z,66.05
2023-05-19T01:54:51.956Z,65.56
2023-05-19T01:57:35.430Z,66.25
2023-05-19T02:00:31.223Z,66.59
2023-05-19T02:03:31.741Z,66.91
2023-05-19T02:06:20.084Z,67.21
2023-05-19T02:08:57.926Z,67.26
2023-05-19T02:11:35.963Z,67.49
2023-05-19T02:14:06.638Z,67.70
2023-05-19T02:16:34.078Z,67.97
2023-05-19T02:19:01.154Z,67.97
2023-05-19T02:21:28.112Z,68.43
2023-05-19T02:23:55.328Z,68.33
2023-05-19T02:26:23.015Z,68.56
2023-05-19T02:28:52.853Z,68.65
2023-05-19T02:31:19.667Z,69.11
2023-05-19T02:33:46.481Z,69.16
2023-05-19T02:36:14.758Z,68.97
2023-05-19T02:38:41.560Z,69.44
2023-05-19T06:38:02.172Z,59.66
2023-05-19T06:40:29.862Z,58.16
2023-05-19T06:42:56.921Z,56.23
2023-05-19T06:45:56.006Z,55.51
2023-05-19T06:48:25.065Z,54.22
2023-05-19T06:50:52.344Z,54.08
2023-05-19T06:53:20.294Z,54.03
2023-05-19T06:55:58.679Z,52.96
2023-05-19T06:58:27.974Z,52.66
2023-05-19T07:00:55.780Z,50.92
2023-05-19T07:03:26.290Z,51.45
2023-05-19T07:05:54.475Z,51.12
2023-05-19T07:08:21.279Z,50.83
2023-05-19T07:10:48.190Z,50.41
2023-05-19T07:13:17.078Z,49.31
2023-05-19T07:15:44.166Z,48.52
2023-05-19T07:18:11.227Z,49.54
2023-05-19T07:20:38.082Z,47.60
2023-05-19T07:23:05.605Z,47.96
2023-05-19T07:25:33.467Z,46.56
2023-05-19T07:28:00.347Z,45.48
2023-05-19T07:30:28.915Z,45.57
2023-05-19T07:32:55.924Z,43.56
2023-05-19T07:35:25.574Z,44.13
2023-05-19T07:37:52.714Z,43.51
2023-05-19T07:40:19.942Z,44.13
2023-05-19T07:42:47.013Z,44.15
2023-05-19T07:45:13.757Z,43.74
2023-05-19T07:47:41.476Z,44.17
2023-05-19T07:50:08.599Z,43.96
2023-05-19T07:52:35.473Z,43.88
2023-05-19T07:55:02.395Z,42.34
2023-05-19T07:57:29.140Z,42.22
2023-05-19T07:59:56.043Z,42.31
2023-05-19T08:02:22.908Z,42.64
2023-05-19T08:04:49.785Z,43.20
2023-05-19T08:07:16.728Z,42.07
2023-05-19T08:09:43.811Z,41.58
2023-05-19T08:12:10.699Z,44.35
2023-05-19T08:14:37.730Z,40.39
2023-05-19T08:17:04.581Z,40.55
2023-05-19T08:19:31.603Z,42.20
2023-05-19T08:22:01.336Z,42.44
2023-05-19T08:24:32.970Z,41.68
2023-05-19T08:26:59.897Z,41.86
2023-05-19T08:29:26.714Z,42.66
2023-05-19T08:31:53.785Z,41.71
2023-05-19T08:34:20.991Z,40.91
2023-05-19T08:36:48.106Z,42.14
2023-05-19T08:39:16.502Z,41.79
2023-05-19T08:41:43.461Z,42.77
2023-05-19T08:44:10.355Z,42.24
2023-05-19T08:46:37.406Z,41.17
2023-05-19T08:49:09.643Z,41.18
2023-05-19T08:51:49.717Z,40.98
2023-05-19T08:54:18.277Z,41.81
2023-05-19T08:56:48.384Z,41.97
2023-05-19T08:59:16.593Z,40.96
2023-05-19T09:01:46.929Z,40.57
2023-05-19T09:04:14.313Z,40.43
2023-05-19T09:06:41.375Z,41.31
2023-05-19T09:09:08.772Z,40.78
2023-05-19T09:11:37.794Z,41.66
2023-05-19T09:14:05.932Z,43.08
2023-05-19T09:16:34.313Z,43.59
2023-05-19T09:19:01.704Z,43.65
2023-05-19T09:21:31.417Z,43.42
2023-05-19T09:23:59.626Z,43.14
2023-05-19T09:26:36.721Z,42.43
2023-05-19T09:29:11.345Z,42.72
2023-05-19T09:31:38.363Z,43.76
2023-05-19T09:34:05.373Z,42.87
2023-05-19T09:36:32.393Z,41.46
2023-05-19T09:38:59.299Z,41.46
2023-05-19T09:41:26.648Z,40.60
2023-05-19T09:43:56.646Z,38.24
2023-05-19T09:46:30.479Z,38.39
2023-05-19T09:48:58.787Z,38.64
2023-05-19T09:51:25.952Z,38.55
2023-05-19T09:53:53.780Z,37.20
2023-05-19T09:56:23.958Z,37.36
2023-05-19T09:58:50.984Z,35.56
2023-05-19T10:01:18.406Z,33.91
2023-05-19T10:03:45.644Z,35.14
2023-05-19T10:06:12.846Z,33.19
2023-05-19T10:08:39.949Z,31.75
2023-05-19T10:11:07.133Z,32.53
2023-05-19T10:13:36.402Z,31.90
2023-05-19T10:16:03.808Z,32.22
2023-05-19T10:18:31.350Z,32.75
2023-05-19T10:20:59.295Z,32.75
2023-05-19T10:23:26.467Z,34.58
2023-05-19T10:25:56.817Z,32.72
2023-05-19T10:28:26.889Z,32.60
2023-05-19T10:30:56.015Z,33.68
2023-05-19T10:33:32.226Z,34.51
2023-05-19T10:36:11.349Z,34.63
2023-05-19T10:38:53.605Z,34.30
2023-05-19T10:41:42.117Z,34.53
2023-05-19T10:44:30.810Z,35.26
2023-05-19T10:46:57.855Z,36.16
2023-05-19T10:49:24.639Z,35.69
2023-05-19T10:51:57.248Z,35.31
2023-05-19T10:54:41.223Z,35.24
2023-05-19T10:57:08.545Z,36.01
2023-05-19T10:59:38.053Z,37.16
2023-05-19T11:02:05.864Z,36.04
2023-05-19T11:04:51.651Z,36.23
2023-05-19T11:07:20.661Z,36.10
2023-05-19T11:09:53.805Z,36.79
2023-05-19T11:12:25.355Z,36.34
2023-05-19T11:14:53.879Z,36.74
2023-05-19T11:17:23.960Z,35.32
2023-05-19T11:19:57.841Z,36.59
2023-05-19T11:22:28.341Z,35.39
2023-05-19T11:24:56.165Z,35.28
2023-05-19T11:27:33.759Z,34.75
2023-05-19T11:30:16.143Z,34.90
2023-05-19T11:32:44.507Z,36.53
2023-05-19T11:35:11.630Z,36.06
2023-05-19T11:37:40.689Z,36.05
2023-05-19T11:40:08.217Z,35.92
2023-05-19T11:42:37.210Z,35.18
2023-05-19T11:45:05.074Z,36.02
2023-05-19T11:47:41.988Z,34.07
2023-05-19T11:50:12.818Z,35.04
2023-05-19T11:52:44.889Z,34.05
2023-05-19T11:55:16.154Z,34.44
2023-05-19T11:58:02.852Z,32.60
2023-05-19T12:00:37.458Z,33.29
2023-05-19T12:03:04.730Z,33.91
2023-05-19T12:05:34.431Z,33.71
2023-05-19T12:08:03.323Z,33.73
2023-05-19T12:10:31.977Z,33.38
2023-05-19T12:13:00.102Z,35.25
2023-05-19T12:15:26.975Z,36.03
2023-05-19T12:17:59.102Z,33.97
2023-05-19T12:20:27.015Z,33.86
2023-05-19T12:22:57.368Z,34.00
2023-05-19T12:25:25.005Z,35.16
2023-05-19T12:27:56.825Z,34.71
2023-05-19T12:30:31.576Z,35.31
2023-05-19T12:32:58.859Z,35.02
2023-05-19T12:35:30.420Z,35.67
2023-05-19T12:37:57.945Z,35.28
2023-05-19T12:40:26.055Z,35.03
2023-05-19T12:42:59.451Z,35.46
2023-05-19T12:45:28.407Z,35.99
2023-05-19T12:47:56.446Z,36.07
2023-05-19T12:50:30.384Z,35.24
2023-05-19T12:52:59.949Z,36.09
2023-05-19T12:55:27.051Z,36.81
2023-05-19T12:57:57.484Z,34.78
2023-05-19T13:00:32.874Z,34.62
2023-05-19T13:03:01.044Z,34.64
2023-05-19T13:05:29.387Z,34.99
2023-05-19T13:08:02.472Z,35.85
2023-05-19T13:10:30.015Z,36.57
2023-05-19T13:12:58.235Z,36.26
2023-05-19T13:15:26.921Z,37.38
2023-05-19T13:17:54.656Z,35.28
2023-05-19T13:20:22.014Z,36.07
2023-05-19T13:22:49.264Z,35.92
2023-05-19T13:25:16.242Z,36.21
2023-05-19T13:27:44.574Z,35.71
2023-05-19T13:30:12.098Z,35.70
2023-05-19T13:32:39.024Z,36.54
2023-05-19T13:35:07.174Z,36.39
2023-05-19T13:37:34.105Z,36.33
2023-05-19T13:40:01.723Z,37.37
2023-05-19T13:42:28.580Z,36.80
2023-05-19T13:44:58.848Z,37.83
2023-05-19T13:47:25.974Z,37.17
2023-05-19T13:49:53.217Z,37.08
2023-05-19T13:52:23.784Z,37.11
2023-05-19T13:54:50.982Z,37.29
2023-05-19T13:57:17.949Z,36.99
2023-05-19T14:00:00.064Z,37.42
2023-05-19T14:02:28.548Z,37.02
2023-05-19T14:04:56.120Z,36.75
2023-05-19T14:07:22.924Z,38.04
2023-05-19T14:09:51.428Z,36.96
2023-05-19T14:12:18.678Z,37.03
2023-05-19T14:14:48.543Z,37.27
2023-05-19T14:17:15.424Z,37.55
2023-05-19T14:19:42.392Z,37.07
2023-05-19T14:22:09.383Z,38.09
2023-05-19T14:24:36.385Z,37.71
2023-05-19T14:27:03.244Z,36.61
2023-05-19T14:29:31.432Z,37.20
2023-05-19T14:31:58.427Z,37.75
2023-05-19T14:34:25.581Z,37.58
2023-05-19T14:36:52.473Z,38.04
2023-05-19T14:39:19.408Z,38.12
2023-05-19T14:41:46.363Z,38.99
2023-05-19T14:44:13.725Z,38.29
2023-05-19T14:46:40.586Z,37.58
2023-05-19T14:49:07.965Z,38.36
2023-05-19T14:51:34.740Z,38.82
2023-05-19T14:54:02.492Z,38.12
2023-05-19T14:56:29.411Z,38.09
2023-05-19T14:58:56.694Z,38.10
2023-05-19T15:01:23.632Z,37.93
2023-05-19T15:03:50.615Z,38.14
2023-05-19T15:06:17.413Z,38.46
2023-05-19T15:08:44.168Z,38.32
2023-05-19T15:11:11.096Z,38.41
2023-05-19T15:13:37.892Z,38.87
2023-05-19T15:16:15.650Z,38.34
2023-05-19T15:18:44.186Z,38.87
2023-05-19T15:21:11.140Z,38.90
2023-05-19T15:23:37.952Z,39.57
2023-05-19T15:26:04.771Z,39.25
2023-05-19T15:28:32.374Z,39.62
2023-05-19T15:30:59.262Z,39.56
2023-05-19T15:33:26.564Z,39.68
2023-05-19T15:35:53.556Z,40.44
2023-05-19T15:38:20.615Z,39.79
2023-05-19T15:40:47.469Z,40.32
2023-05-19T15:43:14.444Z,39.75
2023-05-19T15:45:41.220Z,39.39
2023-05-19T15:48:08.623Z,40.42
2023-05-19T15:50:35.883Z,40.38
2023-05-19T15:53:03.000Z,41.31
2023-05-19T15:55:29.920Z,41.26
2023-05-19T15:57:56.974Z,39.89
2023-05-19T16:00:23.830Z,40.02
2023-05-19T16:02:51.253Z,41.08
2023-05-19T16:05:18.319Z,40.87
2023-05-19T16:07:45.378Z,40.17
2023-05-19T16:10:12.260Z,40.65
2023-05-19T16:12:39.144Z,41.04
2023-05-19T16:15:06.450Z,40.66
2023-05-19T16:17:33.746Z,41.29
2023-05-19T16:20:00.576Z,41.57
2023-05-19T16:22:27.680Z,41.29
2023-05-19T16:24:54.440Z,41.81
2023-05-19T16:27:21.327Z,41.65
2023-05-19T16:29:49.221Z,41.74
2023-05-19T16:32:16.223Z,41.65
2023-05-19T16:34:43.034Z,41.66
2023-05-19T16:37:09.995Z,41.93
2023-05-19T16:39:40.527Z,41.69
2023-05-19T16:42:07.564Z,41.71
2023-05-19T16:44:34.353Z,43.08
2023-05-19T16:47:01.167Z,42.25
2023-05-19T16:49:28.079Z,41.95
2023-05-19T16:51:55.991Z,42.20
2023-05-19T16:54:23.623Z,41.15
2023-05-19T16:56:51.471Z,41.81
2023-05-19T16:59:18.331Z,40.56
2023-05-19T17:01:45.362Z,41.08
2023-05-19T17:04:12.159Z,40.27
2023-05-19T17:06:39.138Z,40.61
2023-05-19T17:09:06.176Z,40.86
2023-05-19T17:11:33.124Z,41.09
2023-05-19T17:14:00.075Z,40.42
2023-05-19T17:16:27.091Z,40.92
2023-05-19T17:18:54.529Z,41.04
2023-05-19T17:21:21.827Z,41.42
2023-05-19T17:23:49.655Z,41.00
2023-05-19T17:26:17.462Z,41.12
2023-05-19T17:28:44.853Z,41.28
2023-05-19T17:31:12.885Z,42.05
2023-05-19T17:33:39.814Z,42.03
2023-05-19T17:36:07.659Z,42.53
2023-05-19T17:38:34.774Z,42.79
2023-05-19T17:41:02.483Z,42.47
2023-05-19T17:43:29.442Z,43.08
2023-05-19T17:45:58.152Z,42.57
2023-05-19T17:48:26.084Z,42.72
2023-05-19T17:50:52.933Z,42.94
2023-05-19T17:53:20.082Z,42.67
2023-05-19T17:55:51.505Z,43.03
2023-05-19T17:58:19.334Z,43.39
2023-05-19T18:00:46.380Z,43.43
2023-05-19T18:03:13.621Z,44.15
2023-05-19T18:05:41.426Z,44.11
2023-05-19T18:08:09.644Z,44.10
2023-05-19T18:10:37.842Z,44.23
2023-05-19T18:13:05.783Z,44.53
2023-05-19T18:15:32.568Z,45.13
2023-05-19T18:17:59.477Z,44.17
2023-05-19T18:20:26.406Z,44.83
2023-05-19T18:22:53.296Z,44.40
2023-05-19T18:25:21.136Z,44.62
2023-05-19T18:27:48.087Z,44.55
2023-05-19T18:30:14.986Z,44.48
2023-05-19T18:32:41.906Z,44.34
2023-05-19T18:35:09.973Z,44.95
2023-05-19T18:37:37.083Z,44.42
2023-05-19T18:40:04.040Z,44.73
2023-05-19T18:42:30.865Z,44.02
2023-05-19T18:44:58.082Z,44.42
2023-05-19T18:47:25.083Z,44.74
2023-05-19T18:49:51.953Z,44.45
2023-05-19T18:52:20.095Z,45.04
2023-05-19T18:54:47.551Z,45.11
2023-05-19T18:57:14.804Z,45.54
2023-05-19T18:59:41.618Z,45.06
2023-05-19T19:02:08.563Z,45.40
2023-05-19T19:04:35.696Z,45.36
2023-05-19T19:07:02.659Z,46.00
2023-05-19T19:09:29.955Z,45.64
2023-05-19T19:11:56.773Z,47.23
2023-05-19T19:14:23.575Z,47.23
2023-05-19T19:16:50.707Z,47.13
2023-05-19T19:19:17.568Z,47.21
2023-05-19T19:21:44.458Z,47.60
2023-05-19T19:24:11.511Z,47.07
2023-05-19T19:26:38.566Z,47.64
2023-05-19T19:29:05.515Z,47.53
2023-05-19T19:31:33.608Z,47.82
2023-05-19T19:34:03.885Z,48.13
2023-05-19T19:36:32.104Z,48.16
2023-05-19T19:38:59.084Z,48.89
2023-05-19T19:41:26.971Z,48.83
2023-05-19T19:43:54.073Z,49.14
2023-05-19T19:46:20.966Z,48.64
2023-05-19T19:48:48.190Z,49.36
2023-05-19T19:51:15.008Z,50.07
2023-05-19T19:53:41.938Z,49.96
2023-05-19T19:56:08.789Z,49.70
2023-05-19T19:58:35.696Z,50.28
2023-05-19T20:01:03.835Z,50.40
2023-05-19T20:03:31.883Z,50.30
2023-05-19T20:05:59.169Z,50.80
2023-05-19T20:08:26.561Z,51.22
2023-05-19T20:10:53.484Z,50.43
2023-05-19T20:13:20.577Z,51.28
2023-05-19T20:15:47.497Z,51.75
2023-05-19T20:18:15.488Z,51.16
2023-05-19T20:20:42.895Z,51.93
2023-05-19T20:23:09.855Z,52.57
2023-05-19T20:25:57.799Z,51.94
2023-05-19T20:28:26.113Z,52.23
2023-05-19T20:30:53.012Z,52.76
2023-05-19T20:33:19.875Z,52.11
2023-05-19T20:35:46.636Z,52.88
2023-05-19T20:38:13.574Z,52.71
2023-05-19T20:40:40.456Z,52.44
2023-05-19T20:43:07.367Z,52.75
2023-05-19T20:45:34.363Z,53.25
2023-05-19T20:48:02.937Z,53.42
2023-05-19T20:50:29.968Z,53.68
2023-05-19T20:52:56.834Z,53.69
2023-05-19T20:55:23.731Z,53.70
2023-05-19T20:57:50.604Z,54.55
2023-05-19T21:00:17.865Z,54.17
2023-05-19T21:02:45.072Z,54.42
2023-05-19T21:05:12.079Z,55.14
2023-05-19T21:07:38.972Z,54.63
2023-05-19T21:10:06.567Z,55.26
2023-05-19T21:12:34.540Z,54.99
2023-05-19T21:15:02.020Z,55.90
2023-05-19T21:17:29.193Z,56.09
2023-05-19T21:19:59.605Z,56.47
2023-05-19T21:22:26.975Z,56.53
2023-05-19T21:24:54.434Z,56.17
2023-05-19T21:27:21.374Z,56.81
2023-05-19T21:29:52.579Z,56.87
2023-05-19T21:32:19.793Z,57.14
2023-05-19T21:34:46.677Z,57.58
